Terminal Aerodrome Forecast
Issued by NWS

Home | Current Version | Previous Version | Graphics & Text | Print | Product List | Glossary On
Versions: 1 2 3 4 5 6 7 8 9 10 11 12 13 14 15 16 17 18 19 20
000
FTUS43 KICT 282128 AAA
TAFSLN
TAF AMD
KSLN 282128Z 2821/0118 15007KT P6SM OVC015
     FM010200 18007KT 4SM -SN BKN008
     FM010800 VRB04KT P6SM BKN008
     FM011700 35006KT P6SM SCT010 BKN060=

USA.gov is the U.S. government's official web portal to all federal, state and local government web resources and services.